sensor_id;sensor_type;location;lat;lon;timestamp;P1;durP1;ratioP1;P2;durP2;ratioP2
12048;SDS011;6085;49.452;8.502;2023-02-26T00:01:40;3.25;;;1.70;;
12048;SDS011;6085;49.452;8.502;2023-02-26T00:05:42;1.63;;;1.52;;
12048;SDS011;6085;49.452;8.502;2023-02-26T00:09:45;1.83;;;1.50;;
12048;SDS011;6085;49.452;8.502;2023-02-26T00:13:47;2.13;;;1.42;;
12048;SDS011;6085;49.452;8.502;2023-02-26T00:17:51;1.75;;;1.65;;
12048;SDS011;6085;49.452;8.502;2023-02-26T00:22:00;1.60;;;1.50;;
12048;SDS011;6085;49.452;8.502;2023-02-26T00:26:04;2.10;;;1.85;;
12048;SDS011;6085;49.452;8.502;2023-02-26T00:30:07;1.83;;;1.42;;
12048;SDS011;6085;49.452;8.502;2023-02-26T00:34:10;2.28;;;1.85;;
12048;SDS011;6085;49.452;8.502;2023-02-26T00:38:13;2.25;;;1.52;;
12048;SDS011;6085;49.452;8.502;2023-02-26T00:42:19;1.70;;;1.50;;
12048;SDS011;6085;49.452;8.502;2023-02-26T00:46:25;1.95;;;1.70;;
12048;SDS011;6085;49.452;8.502;2023-02-26T00:50:35;2.13;;;1.38;;
12048;SDS011;6085;49.452;8.502;2023-02-26T00:54:44;3.05;;;1.45;;
12048;SDS011;6085;49.452;8.502;2023-02-26T00:58:47;1.75;;;1.55;;
12048;SDS011;6085;49.452;8.502;2023-02-26T01:02:51;2.45;;;1.70;;
12048;SDS011;6085;49.452;8.502;2023-02-26T01:06:54;3.67;;;1.80;;
12048;SDS011;6085;49.452;8.502;2023-02-26T01:10:57;2.17;;;1.98;;
12048;SDS011;6085;49.452;8.502;2023-02-26T01:15:02;1.90;;;1.80;;
12048;SDS011;6085;49.452;8.502;2023-02-26T01:19:07;2.90;;;1.60;;
12048;SDS011;6085;49.452;8.502;2023-02-26T01:23:16;3.17;;;1.73;;
12048;SDS011;6085;49.452;8.502;2023-02-26T01:27:25;2.38;;;1.58;;
12048;SDS011;6085;49.452;8.502;2023-02-26T01:31:34;1.98;;;1.77;;
12048;SDS011;6085;49.452;8.502;2023-02-26T01:35:42;1.65;;;1.48;;
12048;SDS011;6085;49.452;8.502;2023-02-26T01:39:51;2.25;;;1.80;;
12048;SDS011;6085;49.452;8.502;2023-02-26T01:44:10;1.73;;;1.63;;
12048;SDS011;6085;49.452;8.502;2023-02-26T01:48:17;4.95;;;1.90;;
12048;SDS011;6085;49.452;8.502;2023-02-26T01:57:03;1.80;;;1.60;;
12048;SDS011;6085;49.452;8.502;2023-02-26T02:01:09;4.15;;;1.92;;
12048;SDS011;6085;49.452;8.502;2023-02-26T02:05:12;1.90;;;1.80;;
12048;SDS011;6085;49.452;8.502;2023-02-26T02:09:19;2.35;;;1.80;;
12048;SDS011;6085;49.452;8.502;2023-02-26T02:13:27;2.83;;;1.80;;
12048;SDS011;6085;49.452;8.502;2023-02-26T02:17:40;1.92;;;1.80;;
12048;SDS011;6085;49.452;8.502;2023-02-26T02:21:54;2.38;;;1.92;;
12048;SDS011;6085;49.452;8.502;2023-02-26T02:31:00;2.17;;;2.03;;
12048;SDS011;6085;49.452;8.502;2023-02-26T02:35:08;3.58;;;1.98;;
12048;SDS011;6085;49.452;8.502;2023-02-26T02:39:15;2.17;;;1.98;;
12048;SDS011;6085;49.452;8.502;2023-02-26T02:43:21;3.45;;;2.08;;
12048;SDS011;6085;49.452;8.502;2023-02-26T02:47:28;2.20;;;1.67;;
12048;SDS011;6085;49.452;8.502;2023-02-26T02:51:34;2.95;;;1.90;;
12048;SDS011;6085;49.452;8.502;2023-02-26T02:55:40;2.78;;;1.83;;
12048;SDS011;6085;49.452;8.502;2023-02-26T02:59:47;2.35;;;1.95;;
12048;SDS011;6085;49.452;8.502;2023-02-26T03:03:56;3.25;;;1.88;;
12048;SDS011;6085;49.452;8.502;2023-02-26T03:08:04;1.98;;;1.88;;
12048;SDS011;6085;49.452;8.502;2023-02-26T03:12:09;2.80;;;2.08;;
12048;SDS011;6085;49.452;8.502;2023-02-26T03:16:14;2.08;;;1.95;;
12048;SDS011;6085;49.452;8.502;2023-02-26T03:20:28;4.70;;;2.05;;
12048;SDS011;6085;49.452;8.502;2023-02-26T03:24:34;2.67;;;1.70;;
12048;SDS011;6085;49.452;8.502;2023-02-26T03:28:43;2.60;;;1.80;;
12048;SDS011;6085;49.452;8.502;2023-02-26T03:32:50;2.95;;;1.90;;
12048;SDS011;6085;49.452;8.502;2023-02-26T03:37:00;2.08;;;1.88;;
12048;SDS011;6085;49.452;8.502;2023-02-26T03:41:05;2.50;;;2.03;;
12048;SDS011;6085;49.452;8.502;2023-02-26T03:45:11;2.15;;;1.95;;
12048;SDS011;6085;49.452;8.502;2023-02-26T03:49:17;3.03;;;1.95;;
12048;SDS011;6085;49.452;8.502;2023-02-26T03:53:26;2.38;;;2.03;;
12048;SDS011;6085;49.452;8.502;2023-02-26T03:57:31;5.15;;;1.92;;
12048;SDS011;6085;49.452;8.502;2023-02-26T04:01:34;2.40;;;2.00;;
12048;SDS011;6085;49.452;8.502;2023-02-26T04:05:42;2.28;;;1.73;;
12048;SDS011;6085;49.452;8.502;2023-02-26T04:09:49;3.78;;;1.80;;
12048;SDS011;6085;49.452;8.502;2023-02-26T04:13:52;3.10;;;2.03;;
12048;SDS011;6085;49.452;8.502;2023-02-26T04:17:54;4.72;;;2.00;;
12048;SDS011;6085;49.452;8.502;2023-02-26T04:21:55;2.58;;;1.95;;
12048;SDS011;6085;49.452;8.502;2023-02-26T04:25:59;3.63;;;2.13;;
12048;SDS011;6085;49.452;8.502;2023-02-26T04:30:00;2.33;;;2.13;;
12048;SDS011;6085;49.452;8.502;2023-02-26T04:34:03;2.10;;;2.00;;
12048;SDS011;6085;49.452;8.502;2023-02-26T04:38:05;4.15;;;2.40;;
12048;SDS011;6085;49.452;8.502;2023-02-26T04:42:08;2.35;;;2.13;;
12048;SDS011;6085;49.452;8.502;2023-02-26T04:46:10;3.05;;;1.98;;
12048;SDS011;6085;49.452;8.502;2023-02-26T04:50:12;2.92;;;2.10;;
12048;SDS011;6085;49.452;8.502;2023-02-26T04:54:13;4.75;;;2.20;;
12048;SDS011;6085;49.452;8.502;2023-02-26T04:58:17;2.30;;;2.10;;
12048;SDS011;6085;49.452;8.502;2023-02-26T05:02:19;4.60;;;2.17;;
12048;SDS011;6085;49.452;8.502;2023-02-26T05:06:20;2.95;;;2.05;;
12048;SDS011;6085;49.452;8.502;2023-02-26T05:10:23;1.92;;;1.80;;
12048;SDS011;6085;49.452;8.502;2023-02-26T05:14:26;3.72;;;1.92;;
12048;SDS011;6085;49.452;8.502;2023-02-26T05:18:28;2.25;;;2.05;;
12048;SDS011;6085;49.452;8.502;2023-02-26T05:22:31;3.45;;;1.85;;
12048;SDS011;6085;49.452;8.502;2023-02-26T05:26:33;3.55;;;1.90;;
12048;SDS011;6085;49.452;8.502;2023-02-26T05:30:36;1.70;;;1.60;;
12048;SDS011;6085;49.452;8.502;2023-02-26T05:34:38;3.05;;;1.90;;
12048;SDS011;6085;49.452;8.502;2023-02-26T05:38:40;2.60;;;2.00;;
12048;SDS011;6085;49.452;8.502;2023-02-26T05:42:41;2.28;;;1.58;;
12048;SDS011;6085;49.452;8.502;2023-02-26T05:46:45;4.80;;;1.90;;
12048;SDS011;6085;49.452;8.502;2023-02-26T05:50:47;1.75;;;1.58;;
12048;SDS011;6085;49.452;8.502;2023-02-26T05:54:49;2.88;;;1.70;;
12048;SDS011;6085;49.452;8.502;2023-02-26T05:58:51;2.33;;;1.67;;
12048;SDS011;6085;49.452;8.502;2023-02-26T06:02:54;3.60;;;1.65;;
12048;SDS011;6085;49.452;8.502;2023-02-26T06:06:56;1.92;;;1.75;;
12048;SDS011;6085;49.452;8.502;2023-02-26T06:10:58;2.13;;;1.90;;
12048;SDS011;6085;49.452;8.502;2023-02-26T06:14:59;2.15;;;1.90;;
12048;SDS011;6085;49.452;8.502;2023-02-26T06:19:03;2.08;;;1.88;;
12048;SDS011;6085;49.452;8.502;2023-02-26T06:23:05;2.33;;;2.13;;
12048;SDS011;6085;49.452;8.502;2023-02-26T06:27:07;2.03;;;1.80;;
12048;SDS011;6085;49.452;8.502;2023-02-26T06:31:08;2.92;;;2.20;;
12048;SDS011;6085;49.452;8.502;2023-02-26T06:35:11;4.13;;;2.40;;
12048;SDS011;6085;49.452;8.502;2023-02-26T06:39:13;2.83;;;1.85;;
12048;SDS011;6085;49.452;8.502;2023-02-26T06:43:15;2.72;;;2.00;;
12048;SDS011;6085;49.452;8.502;2023-02-26T06:47:17;2.38;;;2.00;;
12048;SDS011;6085;49.452;8.502;2023-02-26T06:51:20;5.03;;;2.00;;
12048;SDS011;6085;49.452;8.502;2023-02-26T06:55:22;3.97;;;2.08;;
12048;SDS011;6085;49.452;8.502;2023-02-26T06:59:25;3.80;;;1.80;;
12048;SDS011;6085;49.452;8.502;2023-02-26T07:03:27;3.55;;;1.85;;
12048;SDS011;6085;49.452;8.502;2023-02-26T07:07:31;3.83;;;1.90;;
12048;SDS011;6085;49.452;8.502;2023-02-26T07:11:33;3.08;;;1.98;;
12048;SDS011;6085;49.452;8.502;2023-02-26T07:15:35;3.58;;;2.22;;
12048;SDS011;6085;49.452;8.502;2023-02-26T07:19:37;5.20;;;2.20;;
12048;SDS011;6085;49.452;8.502;2023-02-26T07:23:40;4.13;;;2.55;;
12048;SDS011;6085;49.452;8.502;2023-02-26T07:27:42;5.40;;;2.35;;
12048;SDS011;6085;49.452;8.502;2023-02-26T07:31:44;4.05;;;2.50;;
12048;SDS011;6085;49.452;8.502;2023-02-26T07:35:46;4.03;;;2.28;;
12048;SDS011;6085;49.452;8.502;2023-02-26T07:39:49;3.33;;;2.35;;
12048;SDS011;6085;49.452;8.502;2023-02-26T07:43:51;3.83;;;2.58;;
12048;SDS011;6085;49.452;8.502;2023-02-26T07:47:53;3.92;;;2.67;;
12048;SDS011;6085;49.452;8.502;2023-02-26T07:51:55;5.57;;;3.00;;
12048;SDS011;6085;49.452;8.502;2023-02-26T07:55:59;3.17;;;2.15;;
12048;SDS011;6085;49.452;8.502;2023-02-26T08:00:00;2.58;;;2.38;;
12048;SDS011;6085;49.452;8.502;2023-02-26T08:04:03;4.78;;;2.70;;
12048;SDS011;6085;49.452;8.502;2023-02-26T08:08:05;4.45;;;2.55;;
12048;SDS011;6085;49.452;8.502;2023-02-26T08:12:08;4.22;;;2.30;;
12048;SDS011;6085;49.452;8.502;2023-02-26T08:16:10;4.50;;;2.15;;
12048;SDS011;6085;49.452;8.502;2023-02-26T08:20:13;3.45;;;2.53;;
12048;SDS011;6085;49.452;8.502;2023-02-26T08:24:15;6.78;;;3.00;;
12048;SDS011;6085;49.452;8.502;2023-02-26T08:28:18;6.82;;;3.42;;
12048;SDS011;6085;49.452;8.502;2023-02-26T08:32:20;3.88;;;2.67;;
12048;SDS011;6085;49.452;8.502;2023-02-26T08:36:23;5.57;;;2.67;;
12048;SDS011;6085;49.452;8.502;2023-02-26T08:40:25;3.10;;;2.60;;
12048;SDS011;6085;49.452;8.502;2023-02-26T08:44:30;2.97;;;2.65;;
12048;SDS011;6085;49.452;8.502;2023-02-26T08:48:32;2.20;;;1.70;;
12048;SDS011;6085;49.452;8.502;2023-02-26T08:52:34;2.67;;;2.22;;
12048;SDS011;6085;49.452;8.502;2023-02-26T08:56:37;2.45;;;2.00;;
12048;SDS011;6085;49.452;8.502;2023-02-26T09:00:40;2.08;;;1.85;;
12048;SDS011;6085;49.452;8.502;2023-02-26T09:04:43;2.75;;;1.67;;
12048;SDS011;6085;49.452;8.502;2023-02-26T09:08:44;3.72;;;2.13;;
12048;SDS011;6085;49.452;8.502;2023-02-26T09:12:46;3.22;;;1.50;;
12048;SDS011;6085;49.452;8.502;2023-02-26T09:16:50;2.65;;;1.80;;
12048;SDS011;6085;49.452;8.502;2023-02-26T09:20:52;1.90;;;1.70;;
12048;SDS011;6085;49.452;8.502;2023-02-26T09:24:54;3.15;;;1.88;;
12048;SDS011;6085;49.452;8.502;2023-02-26T09:28:57;2.90;;;1.70;;
12048;SDS011;6085;49.452;8.502;2023-02-26T09:33:00;3.17;;;1.63;;
12048;SDS011;6085;49.452;8.502;2023-02-26T09:37:02;2.15;;;1.65;;
12048;SDS011;6085;49.452;8.502;2023-02-26T09:41:06;1.40;;;1.30;;
12048;SDS011;6085;49.452;8.502;2023-02-26T09:45:16;2.38;;;1.30;;
12048;SDS011;6085;49.452;8.502;2023-02-26T09:49:39;1.90;;;1.70;;
12048;SDS011;6085;49.452;8.502;2023-02-26T09:53:47;1.55;;;1.45;;
12048;SDS011;6085;49.452;8.502;2023-02-26T09:57:53;1.63;;;1.30;;
12048;SDS011;6085;49.452;8.502;2023-02-26T10:01:59;1.63;;;1.10;;
12048;SDS011;6085;49.452;8.502;2023-02-26T10:06:11;2.75;;;1.50;;
12048;SDS011;6085;49.452;8.502;2023-02-26T10:10:22;1.40;;;1.30;;
12048;SDS011;6085;49.452;8.502;2023-02-26T10:14:34;1.30;;;1.20;;
12048;SDS011;6085;49.452;8.502;2023-02-26T10:18:40;1.83;;;1.60;;
12048;SDS011;6085;49.452;8.502;2023-02-26T10:22:54;1.73;;;1.55;;
12048;SDS011;6085;49.452;8.502;2023-02-26T10:27:02;0.90;;;0.90;;
12048;SDS011;6085;49.452;8.502;2023-02-26T10:31:08;2.03;;;1.08;;
12048;SDS011;6085;49.452;8.502;2023-02-26T10:35:18;1.20;;;1.10;;
12048;SDS011;6085;49.452;8.502;2023-02-26T10:39:28;1.13;;;0.98;;
12048;SDS011;6085;49.452;8.502;2023-02-26T10:43:33;0.98;;;0.98;;
12048;SDS011;6085;49.452;8.502;2023-02-26T10:47:40;1.65;;;1.02;;
12048;SDS011;6085;49.452;8.502;2023-02-26T10:51:47;1.30;;;1.08;;
12048;SDS011;6085;49.452;8.502;2023-02-26T10:55:54;1.30;;;1.20;;
12048;SDS011;6085;49.452;8.502;2023-02-26T11:00:03;2.17;;;1.70;;
12048;SDS011;6085;49.452;8.502;2023-02-26T11:04:10;2.05;;;1.60;;
12048;SDS011;6085;49.452;8.502;2023-02-26T11:08:17;1.10;;;1.00;;
12048;SDS011;6085;49.452;8.502;2023-02-26T11:12:25;1.23;;;1.13;;
12048;SDS011;6085;49.452;8.502;2023-02-26T11:16:27;0.95;;;0.93;;
12048;SDS011;6085;49.452;8.502;2023-02-26T11:20:32;0.90;;;0.90;;
12048;SDS011;6085;49.452;8.502;2023-02-26T11:24:37;1.77;;;0.93;;
12048;SDS011;6085;49.452;8.502;2023-02-26T11:28:45;0.90;;;0.90;;
12048;SDS011;6085;49.452;8.502;2023-02-26T11:32:48;0.85;;;0.60;;
12048;SDS011;6085;49.452;8.502;2023-02-26T11:36:52;0.70;;;0.70;;
12048;SDS011;6085;49.452;8.502;2023-02-26T11:40:57;2.63;;;0.98;;
12048;SDS011;6085;49.452;8.502;2023-02-26T11:45:02;0.63;;;0.60;;
12048;SDS011;6085;49.452;8.502;2023-02-26T11:49:07;0.90;;;0.70;;
12048;SDS011;6085;49.452;8.502;2023-02-26T11:53:16;0.50;;;0.50;;
12048;SDS011;6085;49.452;8.502;2023-02-26T11:57:22;0.43;;;0.43;;
12048;SDS011;6085;49.452;8.502;2023-02-26T12:01:28;1.10;;;0.60;;
12048;SDS011;6085;49.452;8.502;2023-02-26T12:05:30;0.50;;;0.50;;
12048;SDS011;6085;49.452;8.502;2023-02-26T12:09:32;0.45;;;0.40;;
12048;SDS011;6085;49.452;8.502;2023-02-26T12:13:34;1.30;;;0.80;;
12048;SDS011;6085;49.452;8.502;2023-02-26T12:17:53;0.80;;;0.80;;
12048;SDS011;6085;49.452;8.502;2023-02-26T12:22:22;0.70;;;0.70;;
12048;SDS011;6085;49.452;8.502;2023-02-26T12:26:39;0.80;;;0.80;;
12048;SDS011;6085;49.452;8.502;2023-02-26T12:30:51;1.00;;;1.00;;
12048;SDS011;6085;49.452;8.502;2023-02-26T12:35:09;1.00;;;0.90;;
12048;SDS011;6085;49.452;8.502;2023-02-26T12:39:35;1.40;;;0.65;;
12048;SDS011;6085;49.452;8.502;2023-02-26T12:43:50;0.60;;;0.60;;
12048;SDS011;6085;49.452;8.502;2023-02-26T12:47:57;2.28;;;0.70;;
12048;SDS011;6085;49.452;8.502;2023-02-26T12:52:22;0.65;;;0.65;;
12048;SDS011;6085;49.452;8.502;2023-02-26T12:57:00;0.70;;;0.65;;
12048;SDS011;6085;49.452;8.502;2023-02-26T13:01:19;0.60;;;0.60;;
12048;SDS011;6085;49.452;8.502;2023-02-26T13:05:41;0.70;;;0.70;;
12048;SDS011;6085;49.452;8.502;2023-02-26T13:10:08;0.70;;;0.63;;
12048;SDS011;6085;49.452;8.502;2023-02-26T13:14:20;0.60;;;0.60;;
12048;SDS011;6085;49.452;8.502;2023-02-26T13:18:32;0.50;;;0.50;;
12048;SDS011;6085;49.452;8.502;2023-02-26T13:22:43;0.45;;;0.43;;
12048;SDS011;6085;49.452;8.502;2023-02-26T13:26:49;0.52;;;0.43;;
12048;SDS011;6085;49.452;8.502;2023-02-26T13:30:54;0.30;;;0.30;;
12048;SDS011;6085;49.452;8.502;2023-02-26T13:34:59;0.40;;;0.40;;
12048;SDS011;6085;49.452;8.502;2023-02-26T13:39:26;0.30;;;0.30;;
12048;SDS011;6085;49.452;8.502;2023-02-26T13:43:51;0.50;;;0.50;;
12048;SDS011;6085;49.452;8.502;2023-02-26T13:48:26;0.98;;;0.50;;
12048;SDS011;6085;49.452;8.502;2023-02-26T13:52:48;0.40;;;0.40;;
12048;SDS011;6085;49.452;8.502;2023-02-26T13:56:52;0.98;;;0.45;;
12048;SDS011;6085;49.452;8.502;2023-02-26T14:01:04;0.90;;;0.90;;
12048;SDS011;6085;49.452;8.502;2023-02-26T14:10:00;0.30;;;0.30;;
12048;SDS011;6085;49.452;8.502;2023-02-26T14:14:05;0.65;;;0.40;;
12048;SDS011;6085;49.452;8.502;2023-02-26T14:18:29;0.43;;;0.43;;
12048;SDS011;6085;49.452;8.502;2023-02-26T14:22:36;0.50;;;0.50;;
12048;SDS011;6085;49.452;8.502;2023-02-26T14:26:43;0.32;;;0.32;;
12048;SDS011;6085;49.452;8.502;2023-02-26T14:30:48;0.47;;;0.47;;
12048;SDS011;6085;49.452;8.502;2023-02-26T14:34:54;0.60;;;0.60;;
12048;SDS011;6085;49.452;8.502;2023-02-26T14:39:01;1.02;;;0.90;;
12048;SDS011;6085;49.452;8.502;2023-02-26T14:43:08;0.50;;;0.50;;
12048;SDS011;6085;49.452;8.502;2023-02-26T14:47:16;2.80;;;0.85;;
12048;SDS011;6085;49.452;8.502;2023-02-26T14:51:22;0.63;;;0.40;;
12048;SDS011;6085;49.452;8.502;2023-02-26T14:55:43;0.50;;;0.50;;
12048;SDS011;6085;49.452;8.502;2023-02-26T14:59:57;0.38;;;0.38;;
12048;SDS011;6085;49.452;8.502;2023-02-26T15:04:13;0.52;;;0.50;;
12048;SDS011;6085;49.452;8.502;2023-02-26T15:08:44;0.50;;;0.50;;
12048;SDS011;6085;49.452;8.502;2023-02-26T15:13:04;1.75;;;0.70;;
12048;SDS011;6085;49.452;8.502;2023-02-26T15:17:25;0.50;;;0.50;;
12048;SDS011;6085;49.452;8.502;2023-02-26T15:21:43;0.47;;;0.47;;
12048;SDS011;6085;49.452;8.502;2023-02-26T15:25:57;0.98;;;0.52;;
12048;SDS011;6085;49.452;8.502;2023-02-26T15:29:59;0.43;;;0.43;;
12048;SDS011;6085;49.452;8.502;2023-02-26T15:34:01;0.55;;;0.50;;
12048;SDS011;6085;49.452;8.502;2023-02-26T15:38:04;1.35;;;0.75;;
12048;SDS011;6085;49.452;8.502;2023-02-26T15:42:08;0.65;;;0.65;;
12048;SDS011;6085;49.452;8.502;2023-02-26T15:46:10;0.80;;;0.80;;
12048;SDS011;6085;49.452;8.502;2023-02-26T15:50:13;0.47;;;0.47;;
12048;SDS011;6085;49.452;8.502;2023-02-26T15:54:18;0.68;;;0.68;;
12048;SDS011;6085;49.452;8.502;2023-02-26T15:58:28;0.80;;;0.80;;
12048;SDS011;6085;49.452;8.502;2023-02-26T16:02:34;0.82;;;0.80;;
12048;SDS011;6085;49.452;8.502;2023-02-26T16:06:38;1.92;;;0.70;;
12048;SDS011;6085;49.452;8.502;2023-02-26T16:10:42;1.38;;;1.08;;
12048;SDS011;6085;49.452;8.502;2023-02-26T16:14:46;0.52;;;0.52;;
12048;SDS011;6085;49.452;8.502;2023-02-26T16:18:50;0.40;;;0.40;;
12048;SDS011;6085;49.452;8.502;2023-02-26T16:22:54;1.10;;;0.80;;
12048;SDS011;6085;49.452;8.502;2023-02-26T16:27:00;1.00;;;0.60;;
12048;SDS011;6085;49.452;8.502;2023-02-26T16:31:11;0.70;;;0.70;;
12048;SDS011;6085;49.452;8.502;2023-02-26T16:35:19;1.48;;;0.63;;
12048;SDS011;6085;49.452;8.502;2023-02-26T16:39:24;0.60;;;0.60;;
12048;SDS011;6085;49.452;8.502;2023-02-26T16:43:41;0.60;;;0.60;;
12048;SDS011;6085;49.452;8.502;2023-02-26T16:47:53;1.35;;;1.25;;
12048;SDS011;6085;49.452;8.502;2023-02-26T16:51:57;0.95;;;0.80;;
12048;SDS011;6085;49.452;8.502;2023-02-26T16:56:00;2.08;;;1.00;;
12048;SDS011;6085;49.452;8.502;2023-02-26T17:00:04;1.25;;;0.95;;
12048;SDS011;6085;49.452;8.502;2023-02-26T17:04:12;1.50;;;1.40;;
12048;SDS011;6085;49.452;8.502;2023-02-26T17:08:17;1.10;;;0.80;;
12048;SDS011;6085;49.452;8.502;2023-02-26T17:12:21;1.73;;;1.27;;
12048;SDS011;6085;49.452;8.502;2023-02-26T17:16:24;1.45;;;0.80;;
12048;SDS011;6085;49.452;8.502;2023-02-26T17:20:28;1.73;;;1.00;;
12048;SDS011;6085;49.452;8.502;2023-02-26T17:24:32;0.70;;;0.70;;
12048;SDS011;6085;49.452;8.502;2023-02-26T17:28:36;0.90;;;0.90;;
12048;SDS011;6085;49.452;8.502;2023-02-26T17:32:41;2.55;;;0.80;;
12048;SDS011;6085;49.452;8.502;2023-02-26T17:36:44;3.10;;;0.60;;
12048;SDS011;6085;49.452;8.502;2023-02-26T17:40:46;1.48;;;0.73;;
12048;SDS011;6085;49.452;8.502;2023-02-26T17:44:50;1.08;;;1.00;;
12048;SDS011;6085;49.452;8.502;2023-02-26T17:48:54;0.70;;;0.70;;
12048;SDS011;6085;49.452;8.502;2023-02-26T17:52:57;0.75;;;0.75;;
12048;SDS011;6085;49.452;8.502;2023-02-26T17:56:59;3.08;;;1.10;;
12048;SDS011;6085;49.452;8.502;2023-02-26T18:01:01;1.25;;;1.15;;
12048;SDS011;6085;49.452;8.502;2023-02-26T18:05:03;1.23;;;0.90;;
12048;SDS011;6085;49.452;8.502;2023-02-26T18:09:09;0.75;;;0.75;;
12048;SDS011;6085;49.452;8.502;2023-02-26T18:13:12;1.27;;;0.82;;
12048;SDS011;6085;49.452;8.502;2023-02-26T18:17:14;1.30;;;1.00;;
12048;SDS011;6085;49.452;8.502;2023-02-26T18:21:19;1.80;;;1.00;;
12048;SDS011;6085;49.452;8.502;2023-02-26T18:25:22;1.77;;;0.93;;
12048;SDS011;6085;49.452;8.502;2023-02-26T18:29:25;0.93;;;0.93;;
12048;SDS011;6085;49.452;8.502;2023-02-26T18:33:27;0.85;;;0.85;;
12048;SDS011;6085;49.452;8.502;2023-02-26T18:37:28;0.88;;;0.88;;
12048;SDS011;6085;49.452;8.502;2023-02-26T18:41:34;0.80;;;0.80;;
12048;SDS011;6085;49.452;8.502;2023-02-26T18:45:35;1.88;;;0.50;;
12048;SDS011;6085;49.452;8.502;2023-02-26T18:49:37;0.60;;;0.60;;
12048;SDS011;6085;49.452;8.502;2023-02-26T18:53:39;0.60;;;0.60;;
12048;SDS011;6085;49.452;8.502;2023-02-26T18:57:42;0.50;;;0.50;;
12048;SDS011;6085;49.452;8.502;2023-02-26T19:01:44;0.70;;;0.50;;
12048;SDS011;6085;49.452;8.502;2023-02-26T19:05:54;1.23;;;0.95;;
12048;SDS011;6085;49.452;8.502;2023-02-26T19:09:57;0.75;;;0.75;;
12048;SDS011;6085;49.452;8.502;2023-02-26T19:14:02;0.65;;;0.65;;
12048;SDS011;6085;49.452;8.502;2023-02-26T19:18:04;1.05;;;0.70;;
12048;SDS011;6085;49.452;8.502;2023-02-26T19:22:06;0.63;;;0.60;;
12048;SDS011;6085;49.452;8.502;2023-02-26T19:26:09;0.60;;;0.52;;
12048;SDS011;6085;49.452;8.502;2023-02-26T19:30:12;1.35;;;0.60;;
12048;SDS011;6085;49.452;8.502;2023-02-26T19:34:14;1.02;;;0.73;;
12048;SDS011;6085;49.452;8.502;2023-02-26T19:38:16;1.50;;;0.70;;
12048;SDS011;6085;49.452;8.502;2023-02-26T19:42:18;1.45;;;0.75;;
12048;SDS011;6085;49.452;8.502;2023-02-26T19:46:21;1.08;;;0.77;;
12048;SDS011;6085;49.452;8.502;2023-02-26T19:50:23;0.80;;;0.75;;
12048;SDS011;6085;49.452;8.502;2023-02-26T19:54:26;0.88;;;0.82;;
12048;SDS011;6085;49.452;8.502;2023-02-26T19:58:29;0.90;;;0.90;;
12048;SDS011;6085;49.452;8.502;2023-02-26T20:02:33;1.00;;;0.90;;
12048;SDS011;6085;49.452;8.502;2023-02-26T20:06:35;0.77;;;0.77;;
12048;SDS011;6085;49.452;8.502;2023-02-26T20:10:37;1.15;;;0.70;;
12048;SDS011;6085;49.452;8.502;2023-02-26T20:14:39;0.60;;;0.60;;
12048;SDS011;6085;49.452;8.502;2023-02-26T20:18:42;0.60;;;0.60;;
12048;SDS011;6085;49.452;8.502;2023-02-26T20:22:44;0.93;;;0.70;;
12048;SDS011;6085;49.452;8.502;2023-02-26T20:26:46;2.05;;;0.70;;
12048;SDS011;6085;49.452;8.502;2023-02-26T20:30:48;0.60;;;0.60;;
12048;SDS011;6085;49.452;8.502;2023-02-26T20:34:51;1.02;;;0.82;;
12048;SDS011;6085;49.452;8.502;2023-02-26T20:38:53;1.88;;;0.82;;
12048;SDS011;6085;49.452;8.502;2023-02-26T20:42:55;0.77;;;0.77;;
12048;SDS011;6085;49.452;8.502;2023-02-26T20:46:58;1.02;;;0.80;;
12048;SDS011;6085;49.452;8.502;2023-02-26T20:51:02;0.95;;;0.82;;
12048;SDS011;6085;49.452;8.502;2023-02-26T20:55:05;1.10;;;1.00;;
12048;SDS011;6085;49.452;8.502;2023-02-26T20:59:08;1.05;;;1.05;;
12048;SDS011;6085;49.452;8.502;2023-02-26T21:03:09;0.95;;;0.95;;
12048;SDS011;6085;49.452;8.502;2023-02-26T21:07:13;1.60;;;1.00;;
12048;SDS011;6085;49.452;8.502;2023-02-26T21:11:20;1.02;;;0.80;;
12048;SDS011;6085;49.452;8.502;2023-02-26T21:15:22;1.02;;;0.90;;
12048;SDS011;6085;49.452;8.502;2023-02-26T21:19:24;0.82;;;0.82;;
12048;SDS011;6085;49.452;8.502;2023-02-26T21:23:27;1.00;;;0.90;;
12048;SDS011;6085;49.452;8.502;2023-02-26T21:27:29;0.95;;;0.88;;
12048;SDS011;6085;49.452;8.502;2023-02-26T21:31:31;0.90;;;0.90;;
12048;SDS011;6085;49.452;8.502;2023-02-26T21:35:33;2.78;;;1.10;;
12048;SDS011;6085;49.452;8.502;2023-02-26T21:39:36;1.95;;;0.93;;
12048;SDS011;6085;49.452;8.502;2023-02-26T21:43:39;0.95;;;0.80;;
12048;SDS011;6085;49.452;8.502;2023-02-26T21:47:41;1.10;;;0.93;;
12048;SDS011;6085;49.452;8.502;2023-02-26T21:51:42;1.25;;;1.05;;
12048;SDS011;6085;49.452;8.502;2023-02-26T21:55:46;1.23;;;1.00;;
12048;SDS011;6085;49.452;8.502;2023-02-26T21:59:47;1.63;;;1.20;;
12048;SDS011;6085;49.452;8.502;2023-02-26T22:03:49;1.38;;;1.00;;
12048;SDS011;6085;49.452;8.502;2023-02-26T22:07:51;2.67;;;0.75;;
12048;SDS011;6085;49.452;8.502;2023-02-26T22:11:54;1.63;;;0.98;;
12048;SDS011;6085;49.452;8.502;2023-02-26T22:15:56;2.00;;;0.90;;
12048;SDS011;6085;49.452;8.502;2023-02-26T22:19:58;0.90;;;0.90;;
12048;SDS011;6085;49.452;8.502;2023-02-26T22:24:00;1.00;;;0.90;;
12048;SDS011;6085;49.452;8.502;2023-02-26T22:28:04;0.93;;;0.93;;
12048;SDS011;6085;49.452;8.502;2023-02-26T22:32:06;1.40;;;1.10;;
12048;SDS011;6085;49.452;8.502;2023-02-26T22:36:08;0.80;;;0.80;;
12048;SDS011;6085;49.452;8.502;2023-02-26T22:40:11;1.17;;;1.00;;
12048;SDS011;6085;49.452;8.502;2023-02-26T22:44:15;1.50;;;0.93;;
12048;SDS011;6085;49.452;8.502;2023-02-26T22:48:17;1.50;;;1.40;;
12048;SDS011;6085;49.452;8.502;2023-02-26T22:52:19;1.60;;;1.27;;
12048;SDS011;6085;49.452;8.502;2023-02-26T22:56:21;0.90;;;0.90;;
12048;SDS011;6085;49.452;8.502;2023-02-26T23:00:25;3.05;;;1.30;;
12048;SDS011;6085;49.452;8.502;2023-02-26T23:04:27;1.50;;;1.17;;
12048;SDS011;6085;49.452;8.502;2023-02-26T23:08:29;1.48;;;1.10;;
12048;SDS011;6085;49.452;8.502;2023-02-26T23:12:31;1.20;;;1.00;;
12048;SDS011;6085;49.452;8.502;2023-02-26T23:16:34;1.42;;;1.20;;
12048;SDS011;6085;49.452;8.502;2023-02-26T23:20:36;1.42;;;1.33;;
12048;SDS011;6085;49.452;8.502;2023-02-26T23:24:38;1.08;;;0.95;;
12048;SDS011;6085;49.452;8.502;2023-02-26T23:28:40;1.30;;;0.95;;
12048;SDS011;6085;49.452;8.502;2023-02-26T23:32:43;1.27;;;1.02;;
12048;SDS011;6085;49.452;8.502;2023-02-26T23:36:45;1.10;;;0.80;;
12048;SDS011;6085;49.452;8.502;2023-02-26T23:40:47;1.42;;;1.20;;
12048;SDS011;6085;49.452;8.502;2023-02-26T23:44:49;1.75;;;1.00;;
12048;SDS011;6085;49.452;8.502;2023-02-26T23:48:52;1.65;;;1.02;;
12048;SDS011;6085;49.452;8.502;2023-02-26T23:52:56;1.73;;;1.00;;
12048;SDS011;6085;49.452;8.502;2023-02-26T23:56:58;1.27;;;1.17;;
